메인 페이지
METAR-TAF:

METAR-TAF

공항 :

팔라우 국제공항

코로르, 바벨다오브 섬, 팔라우

위도: 07-22N, 경도: 134-32E, 고도: 54m

현재 날씨관측

예보는 15분 전, 04:50시(UTC)에 발표되었습니다.
북동8kt, 순간 최대 풍속 16kt
온도 30°C
습도 66%
기압 1009 hPa
시정: 24.1km
고도 1700ft 상공 구름 보통
고도 12000ft 상공 구름 보통
고도 30000ft 상공 구름 많음

METAR: PTRO 150450Z 05008G16KT 15SM SCT017 SCT120 BKN300 30/23 A29802

시각: 14:05 (05:05 UTC)

예보

예보는 5 시간 44분 전, 23:21시(UTC)에 발표되었습니다.
예보 대상 시간: 15일 00시부터 15일 24시까지 (UTC)
북동10kt
시정: 10km
고도 1700ft 상공 구름 보통

TAF: PTRO 142321Z 1500/1524 04010KT P6SM SCT017

4,000개 이상의 공항 관측 자료 및 예보 (METAR 및 TAF 보고).

지도상에서 검색 가능한 기상관측소가 노란 점과 빨간 점으로 표시되어 있습니다.

기상관측소 명을 보려면 표시 위로 마우스를 이동하세요.

날씨 관측과 예보를 보려면 클릭하세요.

지도 변경 : 확대하려면 엑스 표시가 있는 녹색 버튼, 축소하려면 빼기 표시가 있는 녹색 버튼, 다음 페이지의 지도를 보려면 녹색 화살표를 클릭하세요.


METAR-TAF: